sensor_id;sensor_type;location;lat;lon;timestamp;P1;durP1;ratioP1;P2;durP2;ratioP2
77105;SDS011;66057;54.718;18.426;2023-05-07T00:01:45;4.25;;;2.00;;
77105;SDS011;66057;54.718;18.426;2023-05-07T00:04:11;6.22;;;1.63;;
77105;SDS011;66057;54.718;18.426;2023-05-07T00:06:37;5.32;;;2.03;;
77105;SDS011;66057;54.718;18.426;2023-05-07T00:09:02;4.35;;;2.03;;
77105;SDS011;66057;54.718;18.426;2023-05-07T00:16:20;4.45;;;1.80;;
77105;SDS011;66057;54.718;18.426;2023-05-07T00:18:46;3.70;;;1.52;;
77105;SDS011;66057;54.718;18.426;2023-05-07T00:21:12;8.85;;;1.75;;
77105;SDS011;66057;54.718;18.426;2023-05-07T00:23:38;4.80;;;1.75;;
77105;SDS011;66057;54.718;18.426;2023-05-07T00:26:04;3.33;;;1.75;;
77105;SDS011;66057;54.718;18.426;2023-05-07T00:28:29;3.17;;;1.27;;
77105;SDS011;66057;54.718;18.426;2023-05-07T00:30:55;5.50;;;2.05;;
77105;SDS011;66057;54.718;18.426;2023-05-07T00:33:21;3.35;;;1.83;;
77105;SDS011;66057;54.718;18.426;2023-05-07T00:35:47;8.07;;;2.00;;
77105;SDS011;66057;54.718;18.426;2023-05-07T00:38:13;2.83;;;1.55;;
77105;SDS011;66057;54.718;18.426;2023-05-07T00:40:39;6.97;;;1.83;;
77105;SDS011;66057;54.718;18.426;2023-05-07T00:43:05;2.90;;;1.23;;
77105;SDS011;66057;54.718;18.426;2023-05-07T00:47:59;4.65;;;1.38;;
77105;SDS011;66057;54.718;18.426;2023-05-07T00:50:26;3.53;;;1.73;;
77105;SDS011;66057;54.718;18.426;2023-05-07T00:52:53;3.47;;;1.90;;
77105;SDS011;66057;54.718;18.426;2023-05-07T00:55:19;3.75;;;2.10;;
77105;SDS011;66057;54.718;18.426;2023-05-07T00:57:45;5.13;;;1.52;;
77105;SDS011;66057;54.718;18.426;2023-05-07T01:00:11;4.88;;;2.40;;
77105;SDS011;66057;54.718;18.426;2023-05-07T01:02:40;4.60;;;1.98;;
77105;SDS011;66057;54.718;18.426;2023-05-07T01:05:08;2.55;;;1.65;;
77105;SDS011;66057;54.718;18.426;2023-05-07T01:07:36;4.03;;;2.20;;
77105;SDS011;66057;54.718;18.426;2023-05-07T01:10:04;5.93;;;2.00;;
77105;SDS011;66057;54.718;18.426;2023-05-07T01:12:31;3.38;;;1.90;;
77105;SDS011;66057;54.718;18.426;2023-05-07T01:14:57;4.88;;;1.90;;
77105;SDS011;66057;54.718;18.426;2023-05-07T01:17:23;3.63;;;1.48;;
77105;SDS011;66057;54.718;18.426;2023-05-07T01:19:49;4.95;;;1.73;;
77105;SDS011;66057;54.718;18.426;2023-05-07T01:22:16;8.38;;;1.77;;
77105;SDS011;66057;54.718;18.426;2023-05-07T01:24:46;2.83;;;1.67;;
77105;SDS011;66057;54.718;18.426;2023-05-07T01:27:12;4.22;;;1.95;;
77105;SDS011;66057;54.718;18.426;2023-05-07T01:29:38;4.55;;;1.52;;
77105;SDS011;66057;54.718;18.426;2023-05-07T01:32:03;5.45;;;2.28;;
77105;SDS011;66057;54.718;18.426;2023-05-07T01:34:31;5.93;;;1.80;;
77105;SDS011;66057;54.718;18.426;2023-05-07T01:36:59;3.97;;;1.45;;
77105;SDS011;66057;54.718;18.426;2023-05-07T01:39:26;7.80;;;2.13;;
77105;SDS011;66057;54.718;18.426;2023-05-07T01:41:56;3.80;;;2.05;;
77105;SDS011;66057;54.718;18.426;2023-05-07T01:44:25;4.72;;;2.05;;
77105;SDS011;66057;54.718;18.426;2023-05-07T01:46:51;4.60;;;2.05;;
77105;SDS011;66057;54.718;18.426;2023-05-07T01:49:17;4.00;;;1.90;;
77105;SDS011;66057;54.718;18.426;2023-05-07T01:51:43;4.53;;;1.85;;
77105;SDS011;66057;54.718;18.426;2023-05-07T01:54:09;4.90;;;2.30;;
77105;SDS011;66057;54.718;18.426;2023-05-07T01:56:35;5.68;;;1.85;;
77105;SDS011;66057;54.718;18.426;2023-05-07T01:59:01;7.70;;;2.38;;
77105;SDS011;66057;54.718;18.426;2023-05-07T02:01:27;6.85;;;2.60;;
77105;SDS011;66057;54.718;18.426;2023-05-07T02:03:53;5.13;;;2.50;;
77105;SDS011;66057;54.718;18.426;2023-05-07T02:06:19;4.32;;;2.17;;
77105;SDS011;66057;54.718;18.426;2023-05-07T02:08:45;3.75;;;1.85;;
77105;SDS011;66057;54.718;18.426;2023-05-07T02:11:11;4.82;;;2.20;;
77105;SDS011;66057;54.718;18.426;2023-05-07T02:13:37;2.95;;;1.83;;
77105;SDS011;66057;54.718;18.426;2023-05-07T02:16:03;3.80;;;1.77;;
77105;SDS011;66057;54.718;18.426;2023-05-07T02:18:29;3.70;;;1.90;;
77105;SDS011;66057;54.718;18.426;2023-05-07T02:20:55;5.07;;;1.75;;
77105;SDS011;66057;54.718;18.426;2023-05-07T02:23:20;3.03;;;1.83;;
77105;SDS011;66057;54.718;18.426;2023-05-07T02:25:46;4.57;;;1.90;;
77105;SDS011;66057;54.718;18.426;2023-05-07T02:28:12;5.50;;;2.17;;
77105;SDS011;66057;54.718;18.426;2023-05-07T02:30:38;4.05;;;1.75;;
77105;SDS011;66057;54.718;18.426;2023-05-07T02:33:04;4.15;;;2.20;;
77105;SDS011;66057;54.718;18.426;2023-05-07T02:35:30;4.13;;;1.67;;
77105;SDS011;66057;54.718;18.426;2023-05-07T02:37:56;7.55;;;2.28;;
77105;SDS011;66057;54.718;18.426;2023-05-07T02:40:21;4.10;;;1.95;;
77105;SDS011;66057;54.718;18.426;2023-05-07T02:42:47;6.43;;;2.38;;
77105;SDS011;66057;54.718;18.426;2023-05-07T02:45:13;5.88;;;2.85;;
77105;SDS011;66057;54.718;18.426;2023-05-07T02:47:39;4.63;;;2.30;;
77105;SDS011;66057;54.718;18.426;2023-05-07T02:50:05;3.35;;;1.67;;
77105;SDS011;66057;54.718;18.426;2023-05-07T02:52:32;4.95;;;2.10;;
77105;SDS011;66057;54.718;18.426;2023-05-07T02:54:57;4.13;;;1.77;;
77105;SDS011;66057;54.718;18.426;2023-05-07T02:57:23;3.88;;;1.83;;
77105;SDS011;66057;54.718;18.426;2023-05-07T02:59:48;5.97;;;2.30;;
77105;SDS011;66057;54.718;18.426;2023-05-07T03:02:14;4.78;;;2.08;;
77105;SDS011;66057;54.718;18.426;2023-05-07T03:04:40;8.05;;;2.33;;
77105;SDS011;66057;54.718;18.426;2023-05-07T03:07:06;5.47;;;2.08;;
77105;SDS011;66057;54.718;18.426;2023-05-07T03:09:32;5.10;;;2.15;;
77105;SDS011;66057;54.718;18.426;2023-05-07T03:11:58;4.07;;;1.92;;
77105;SDS011;66057;54.718;18.426;2023-05-07T03:14:23;6.15;;;2.50;;
77105;SDS011;66057;54.718;18.426;2023-05-07T03:16:49;4.80;;;2.05;;
77105;SDS011;66057;54.718;18.426;2023-05-07T03:19:15;5.88;;;2.13;;
77105;SDS011;66057;54.718;18.426;2023-05-07T03:21:41;5.72;;;2.17;;
77105;SDS011;66057;54.718;18.426;2023-05-07T03:24:06;3.55;;;1.85;;
77105;SDS011;66057;54.718;18.426;2023-05-07T03:26:32;3.40;;;2.08;;
77105;SDS011;66057;54.718;18.426;2023-05-07T03:28:58;6.55;;;2.30;;
77105;SDS011;66057;54.718;18.426;2023-05-07T03:31:24;4.45;;;2.05;;
77105;SDS011;66057;54.718;18.426;2023-05-07T03:33:50;2.78;;;2.03;;
77105;SDS011;66057;54.718;18.426;2023-05-07T03:36:20;7.82;;;2.50;;
77105;SDS011;66057;54.718;18.426;2023-05-07T03:38:46;3.20;;;1.63;;
77105;SDS011;66057;54.718;18.426;2023-05-07T03:41:13;4.57;;;2.42;;
77105;SDS011;66057;54.718;18.426;2023-05-07T03:43:39;6.10;;;2.10;;
77105;SDS011;66057;54.718;18.426;2023-05-07T03:46:05;9.88;;;2.22;;
77105;SDS011;66057;54.718;18.426;2023-05-07T03:48:30;6.72;;;2.70;;
77105;SDS011;66057;54.718;18.426;2023-05-07T03:50:57;7.25;;;2.60;;
77105;SDS011;66057;54.718;18.426;2023-05-07T03:53:23;4.93;;;2.20;;
77105;SDS011;66057;54.718;18.426;2023-05-07T03:55:48;5.05;;;2.55;;
77105;SDS011;66057;54.718;18.426;2023-05-07T03:58:15;6.55;;;2.78;;
77105;SDS011;66057;54.718;18.426;2023-05-07T04:00:41;4.53;;;2.13;;
77105;SDS011;66057;54.718;18.426;2023-05-07T04:03:07;3.50;;;1.80;;
77105;SDS011;66057;54.718;18.426;2023-05-07T04:05:33;6.43;;;2.63;;
77105;SDS011;66057;54.718;18.426;2023-05-07T04:07:59;5.93;;;2.40;;
77105;SDS011;66057;54.718;18.426;2023-05-07T04:10:26;5.95;;;2.75;;
77105;SDS011;66057;54.718;18.426;2023-05-07T04:12:53;7.18;;;2.75;;
77105;SDS011;66057;54.718;18.426;2023-05-07T04:15:19;4.75;;;2.38;;
77105;SDS011;66057;54.718;18.426;2023-05-07T04:17:45;5.18;;;2.33;;
77105;SDS011;66057;54.718;18.426;2023-05-07T04:20:15;8.25;;;2.90;;
77105;SDS011;66057;54.718;18.426;2023-05-07T04:22:42;4.82;;;2.28;;
77105;SDS011;66057;54.718;18.426;2023-05-07T04:25:08;4.47;;;2.45;;
77105;SDS011;66057;54.718;18.426;2023-05-07T04:32:28;4.03;;;1.80;;
77105;SDS011;66057;54.718;18.426;2023-05-07T04:34:55;8.98;;;2.17;;
77105;SDS011;66057;54.718;18.426;2023-05-07T04:37:24;3.75;;;1.83;;
77105;SDS011;66057;54.718;18.426;2023-05-07T04:39:51;3.72;;;1.98;;
77105;SDS011;66057;54.718;18.426;2023-05-07T04:42:17;4.20;;;2.00;;
77105;SDS011;66057;54.718;18.426;2023-05-07T04:44:43;5.13;;;2.10;;
77105;SDS011;66057;54.718;18.426;2023-05-07T04:52:02;5.68;;;2.22;;
77105;SDS011;66057;54.718;18.426;2023-05-07T04:54:28;4.25;;;1.95;;
77105;SDS011;66057;54.718;18.426;2023-05-07T04:56:54;4.82;;;2.17;;
77105;SDS011;66057;54.718;18.426;2023-05-07T04:59:20;3.58;;;2.10;;
77105;SDS011;66057;54.718;18.426;2023-05-07T05:01:46;4.40;;;2.15;;
77105;SDS011;66057;54.718;18.426;2023-05-07T05:04:12;4.88;;;2.08;;
77105;SDS011;66057;54.718;18.426;2023-05-07T05:06:38;3.65;;;1.73;;
77105;SDS011;66057;54.718;18.426;2023-05-07T05:09:04;6.18;;;2.10;;
77105;SDS011;66057;54.718;18.426;2023-05-07T05:11:30;5.20;;;2.50;;
77105;SDS011;66057;54.718;18.426;2023-05-07T05:13:56;4.15;;;2.10;;
77105;SDS011;66057;54.718;18.426;2023-05-07T05:16:22;5.68;;;2.10;;
77105;SDS011;66057;54.718;18.426;2023-05-07T05:18:48;4.25;;;1.90;;
77105;SDS011;66057;54.718;18.426;2023-05-07T05:21:13;3.97;;;1.77;;
77105;SDS011;66057;54.718;18.426;2023-05-07T05:23:39;6.45;;;2.03;;
77105;SDS011;66057;54.718;18.426;2023-05-07T05:26:05;3.58;;;2.03;;
77105;SDS011;66057;54.718;18.426;2023-05-07T05:28:31;4.95;;;2.20;;
77105;SDS011;66057;54.718;18.426;2023-05-07T05:30:57;5.22;;;2.25;;
77105;SDS011;66057;54.718;18.426;2023-05-07T05:33:23;4.78;;;2.22;;
77105;SDS011;66057;54.718;18.426;2023-05-07T05:35:49;5.13;;;2.47;;
77105;SDS011;66057;54.718;18.426;2023-05-07T05:38:16;2.28;;;1.88;;
77105;SDS011;66057;54.718;18.426;2023-05-07T05:40:41;4.10;;;1.90;;
77105;SDS011;66057;54.718;18.426;2023-05-07T05:43:07;6.18;;;2.30;;
77105;SDS011;66057;54.718;18.426;2023-05-07T05:45:32;4.70;;;2.38;;
77105;SDS011;66057;54.718;18.426;2023-05-07T05:47:58;3.13;;;1.73;;
77105;SDS011;66057;54.718;18.426;2023-05-07T05:50:24;5.50;;;2.20;;
77105;SDS011;66057;54.718;18.426;2023-05-07T05:52:50;3.70;;;2.13;;
77105;SDS011;66057;54.718;18.426;2023-05-07T05:55:15;5.05;;;2.33;;
77105;SDS011;66057;54.718;18.426;2023-05-07T05:57:41;5.40;;;2.30;;
77105;SDS011;66057;54.718;18.426;2023-05-07T06:00:07;4.35;;;2.00;;
77105;SDS011;66057;54.718;18.426;2023-05-07T06:02:34;4.63;;;2.33;;
77105;SDS011;66057;54.718;18.426;2023-05-07T06:04:59;5.18;;;2.33;;
77105;SDS011;66057;54.718;18.426;2023-05-07T06:07:25;6.15;;;3.08;;
77105;SDS011;66057;54.718;18.426;2023-05-07T06:09:50;3.83;;;2.40;;
77105;SDS011;66057;54.718;18.426;2023-05-07T06:12:16;7.13;;;2.03;;
77105;SDS011;66057;54.718;18.426;2023-05-07T06:14:42;4.47;;;2.20;;
77105;SDS011;66057;54.718;18.426;2023-05-07T06:19:34;5.63;;;1.92;;
77105;SDS011;66057;54.718;18.426;2023-05-07T06:22:00;5.60;;;2.00;;
77105;SDS011;66057;54.718;18.426;2023-05-07T06:24:26;4.63;;;2.03;;
77105;SDS011;66057;54.718;18.426;2023-05-07T06:26:52;3.83;;;2.20;;
77105;SDS011;66057;54.718;18.426;2023-05-07T06:29:18;4.57;;;2.10;;
77105;SDS011;66057;54.718;18.426;2023-05-07T06:31:44;6.75;;;2.35;;
77105;SDS011;66057;54.718;18.426;2023-05-07T06:34:09;6.68;;;2.80;;
77105;SDS011;66057;54.718;18.426;2023-05-07T06:36:35;4.97;;;1.88;;
77105;SDS011;66057;54.718;18.426;2023-05-07T06:39:01;3.67;;;2.40;;
77105;SDS011;66057;54.718;18.426;2023-05-07T06:41:26;4.53;;;2.05;;
77105;SDS011;66057;54.718;18.426;2023-05-07T06:43:52;6.18;;;1.92;;
77105;SDS011;66057;54.718;18.426;2023-05-07T06:46:18;3.67;;;2.78;;
77105;SDS011;66057;54.718;18.426;2023-05-07T06:48:43;5.78;;;2.03;;
77105;SDS011;66057;54.718;18.426;2023-05-07T06:51:09;5.15;;;2.22;;
77105;SDS011;66057;54.718;18.426;2023-05-07T06:53:35;5.57;;;2.00;;
77105;SDS011;66057;54.718;18.426;2023-05-07T06:56:01;3.33;;;2.00;;
77105;SDS011;66057;54.718;18.426;2023-05-07T06:58:26;4.03;;;2.00;;
77105;SDS011;66057;54.718;18.426;2023-05-07T07:00:52;5.95;;;2.30;;
77105;SDS011;66057;54.718;18.426;2023-05-07T07:03:17;3.90;;;2.25;;
77105;SDS011;66057;54.718;18.426;2023-05-07T07:05:43;7.03;;;2.13;;
77105;SDS011;66057;54.718;18.426;2023-05-07T07:08:09;4.22;;;1.83;;
77105;SDS011;66057;54.718;18.426;2023-05-07T07:10:35;4.28;;;2.17;;
77105;SDS011;66057;54.718;18.426;2023-05-07T07:13:01;7.55;;;2.67;;
77105;SDS011;66057;54.718;18.426;2023-05-07T07:15:27;4.47;;;2.17;;
77105;SDS011;66057;54.718;18.426;2023-05-07T07:17:52;3.80;;;1.83;;
77105;SDS011;66057;54.718;18.426;2023-05-07T07:20:18;5.72;;;2.50;;
77105;SDS011;66057;54.718;18.426;2023-05-07T07:22:44;4.07;;;1.88;;
77105;SDS011;66057;54.718;18.426;2023-05-07T07:25:09;6.60;;;2.33;;
77105;SDS011;66057;54.718;18.426;2023-05-07T07:27:36;3.70;;;2.33;;
77105;SDS011;66057;54.718;18.426;2023-05-07T07:30:02;7.68;;;2.28;;
77105;SDS011;66057;54.718;18.426;2023-05-07T07:32:28;6.05;;;2.72;;
77105;SDS011;66057;54.718;18.426;2023-05-07T07:34:54;5.07;;;2.15;;
77105;SDS011;66057;54.718;18.426;2023-05-07T07:37:19;4.63;;;2.20;;
77105;SDS011;66057;54.718;18.426;2023-05-07T07:39:45;4.07;;;2.40;;
77105;SDS011;66057;54.718;18.426;2023-05-07T07:42:11;4.57;;;2.00;;
77105;SDS011;66057;54.718;18.426;2023-05-07T07:44:37;4.78;;;1.80;;
77105;SDS011;66057;54.718;18.426;2023-05-07T07:47:04;4.13;;;2.38;;
77105;SDS011;66057;54.718;18.426;2023-05-07T07:49:31;5.97;;;2.70;;
77105;SDS011;66057;54.718;18.426;2023-05-07T07:51:57;5.28;;;2.55;;
77105;SDS011;66057;54.718;18.426;2023-05-07T07:54:24;5.90;;;1.83;;
77105;SDS011;66057;54.718;18.426;2023-05-07T07:56:50;5.97;;;2.40;;
77105;SDS011;66057;54.718;18.426;2023-05-07T07:59:16;3.38;;;1.60;;
77105;SDS011;66057;54.718;18.426;2023-05-07T08:01:44;4.38;;;1.80;;
77105;SDS011;66057;54.718;18.426;2023-05-07T08:04:10;4.65;;;2.00;;
77105;SDS011;66057;54.718;18.426;2023-05-07T08:06:35;5.40;;;2.22;;
77105;SDS011;66057;54.718;18.426;2023-05-07T08:09:01;4.05;;;1.80;;
77105;SDS011;66057;54.718;18.426;2023-05-07T08:11:27;3.40;;;1.83;;
77105;SDS011;66057;54.718;18.426;2023-05-07T08:13:54;3.55;;;2.03;;
77105;SDS011;66057;54.718;18.426;2023-05-07T08:16:20;4.03;;;2.15;;
77105;SDS011;66057;54.718;18.426;2023-05-07T08:18:46;3.67;;;1.75;;
77105;SDS011;66057;54.718;18.426;2023-05-07T08:21:11;4.72;;;2.20;;
77105;SDS011;66057;54.718;18.426;2023-05-07T08:23:37;5.80;;;1.80;;
77105;SDS011;66057;54.718;18.426;2023-05-07T08:26:03;4.63;;;2.55;;
77105;SDS011;66057;54.718;18.426;2023-05-07T08:28:29;3.50;;;1.83;;
77105;SDS011;66057;54.718;18.426;2023-05-07T08:30:54;5.25;;;1.90;;
77105;SDS011;66057;54.718;18.426;2023-05-07T08:33:22;3.88;;;2.75;;
77105;SDS011;66057;54.718;18.426;2023-05-07T08:35:47;3.75;;;1.90;;
77105;SDS011;66057;54.718;18.426;2023-05-07T08:38:13;5.15;;;2.38;;
77105;SDS011;66057;54.718;18.426;2023-05-07T08:40:39;3.97;;;1.98;;
77105;SDS011;66057;54.718;18.426;2023-05-07T08:43:06;4.47;;;2.03;;
77105;SDS011;66057;54.718;18.426;2023-05-07T08:45:35;3.97;;;2.30;;
77105;SDS011;66057;54.718;18.426;2023-05-07T08:48:02;3.72;;;2.15;;
77105;SDS011;66057;54.718;18.426;2023-05-07T08:50:30;6.00;;;2.60;;
77105;SDS011;66057;54.718;18.426;2023-05-07T08:52:56;4.20;;;2.30;;
77105;SDS011;66057;54.718;18.426;2023-05-07T08:55:22;5.65;;;2.35;;
77105;SDS011;66057;54.718;18.426;2023-05-07T09:00:15;4.40;;;2.45;;
77105;SDS011;66057;54.718;18.426;2023-05-07T09:02:41;4.13;;;2.63;;
77105;SDS011;66057;54.718;18.426;2023-05-07T09:05:07;5.57;;;2.17;;
77105;SDS011;66057;54.718;18.426;2023-05-07T09:07:33;5.57;;;2.47;;
77105;SDS011;66057;54.718;18.426;2023-05-07T09:10:00;4.20;;;2.47;;
77105;SDS011;66057;54.718;18.426;2023-05-07T09:12:28;4.85;;;2.25;;
77105;SDS011;66057;54.718;18.426;2023-05-07T09:14:53;5.50;;;2.72;;
77105;SDS011;66057;54.718;18.426;2023-05-07T09:17:19;4.03;;;2.33;;
77105;SDS011;66057;54.718;18.426;2023-05-07T09:19:45;4.50;;;2.25;;
77105;SDS011;66057;54.718;18.426;2023-05-07T09:22:11;4.57;;;2.22;;
77105;SDS011;66057;54.718;18.426;2023-05-07T09:24:37;4.95;;;2.67;;
77105;SDS011;66057;54.718;18.426;2023-05-07T09:27:04;4.63;;;2.78;;
77105;SDS011;66057;54.718;18.426;2023-05-07T09:29:30;3.83;;;2.50;;
77105;SDS011;66057;54.718;18.426;2023-05-07T09:32:01;5.25;;;2.55;;
77105;SDS011;66057;54.718;18.426;2023-05-07T09:34:28;4.85;;;2.80;;
77105;SDS011;66057;54.718;18.426;2023-05-07T09:36:55;7.35;;;3.28;;
77105;SDS011;66057;54.718;18.426;2023-05-07T09:39:22;4.55;;;2.88;;
77105;SDS011;66057;54.718;18.426;2023-05-07T09:41:49;6.18;;;2.80;;
77105;SDS011;66057;54.718;18.426;2023-05-07T09:44:16;6.05;;;3.35;;
77105;SDS011;66057;54.718;18.426;2023-05-07T09:46:43;6.45;;;2.83;;
77105;SDS011;66057;54.718;18.426;2023-05-07T09:49:14;5.07;;;3.25;;
77105;SDS011;66057;54.718;18.426;2023-05-07T09:51:47;3.85;;;2.90;;
77105;SDS011;66057;54.718;18.426;2023-05-07T09:54:17;5.53;;;3.28;;
77105;SDS011;66057;54.718;18.426;2023-05-07T09:56:44;6.22;;;3.00;;
77105;SDS011;66057;54.718;18.426;2023-05-07T09:59:12;3.70;;;2.58;;
77105;SDS011;66057;54.718;18.426;2023-05-07T10:01:40;4.40;;;2.58;;
77105;SDS011;66057;54.718;18.426;2023-05-07T10:04:07;5.78;;;3.03;;
77105;SDS011;66057;54.718;18.426;2023-05-07T10:06:36;6.35;;;2.97;;
77105;SDS011;66057;54.718;18.426;2023-05-07T10:11:28;5.40;;;2.72;;
77105;SDS011;66057;54.718;18.426;2023-05-07T10:13:55;6.32;;;2.70;;
77105;SDS011;66057;54.718;18.426;2023-05-07T10:16:21;6.70;;;3.17;;
77105;SDS011;66057;54.718;18.426;2023-05-07T10:18:48;6.13;;;3.20;;
77105;SDS011;66057;54.718;18.426;2023-05-07T10:21:19;5.15;;;3.25;;
77105;SDS011;66057;54.718;18.426;2023-05-07T10:23:50;7.47;;;3.45;;
77105;SDS011;66057;54.718;18.426;2023-05-07T10:26:19;6.53;;;3.13;;
77105;SDS011;66057;54.718;18.426;2023-05-07T10:28:47;6.85;;;3.75;;
77105;SDS011;66057;54.718;18.426;2023-05-07T10:34:12;5.10;;;3.33;;
77105;SDS011;66057;54.718;18.426;2023-05-07T10:36:42;6.03;;;2.90;;
77105;SDS011;66057;54.718;18.426;2023-05-07T10:39:08;7.63;;;2.83;;
77105;SDS011;66057;54.718;18.426;2023-05-07T10:44:00;7.57;;;3.25;;
77105;SDS011;66057;54.718;18.426;2023-05-07T10:46:27;5.18;;;3.08;;
77105;SDS011;66057;54.718;18.426;2023-05-07T10:51:33;4.72;;;2.63;;
77105;SDS011;66057;54.718;18.426;2023-05-07T10:56:41;7.35;;;4.40;;
77105;SDS011;66057;54.718;18.426;2023-05-07T11:04:20;6.78;;;3.25;;
77105;SDS011;66057;54.718;18.426;2023-05-07T11:13:00;9.32;;;2.88;;
77105;SDS011;66057;54.718;18.426;2023-05-07T11:15:08;5.03;;;2.72;;
77105;SDS011;66057;54.718;18.426;2023-05-07T11:17:51;5.75;;;2.60;;
77105;SDS011;66057;54.718;18.426;2023-05-07T11:26:07;4.55;;;2.33;;
77105;SDS011;66057;54.718;18.426;2023-05-07T11:28:54;4.93;;;2.65;;
77105;SDS011;66057;54.718;18.426;2023-05-07T11:31:20;5.20;;;3.03;;
77105;SDS011;66057;54.718;18.426;2023-05-07T11:33:51;8.13;;;3.80;;
77105;SDS011;66057;54.718;18.426;2023-05-07T11:36:20;5.18;;;3.25;;
77105;SDS011;66057;54.718;18.426;2023-05-07T11:38:47;5.78;;;3.08;;
77105;SDS011;66057;54.718;18.426;2023-05-07T11:41:15;5.63;;;2.70;;
77105;SDS011;66057;54.718;18.426;2023-05-07T11:43:53;4.68;;;2.90;;
77105;SDS011;66057;54.718;18.426;2023-05-07T11:46:22;4.38;;;2.55;;
77105;SDS011;66057;54.718;18.426;2023-05-07T11:48:48;3.40;;;2.60;;
77105;SDS011;66057;54.718;18.426;2023-05-07T11:51:18;5.78;;;2.80;;
77105;SDS011;66057;54.718;18.426;2023-05-07T11:53:45;6.85;;;2.92;;
77105;SDS011;66057;54.718;18.426;2023-05-07T11:56:13;4.60;;;2.60;;
77105;SDS011;66057;54.718;18.426;2023-05-07T11:58:40;6.00;;;2.63;;
77105;SDS011;66057;54.718;18.426;2023-05-07T12:01:10;5.47;;;2.50;;
77105;SDS011;66057;54.718;18.426;2023-05-07T12:03:37;7.45;;;3.17;;
77105;SDS011;66057;54.718;18.426;2023-05-07T12:06:06;3.67;;;2.40;;
77105;SDS011;66057;54.718;18.426;2023-05-07T12:08:32;4.47;;;2.40;;
77105;SDS011;66057;54.718;18.426;2023-05-07T12:10:58;3.05;;;1.80;;
77105;SDS011;66057;54.718;18.426;2023-05-07T12:13:24;4.55;;;2.60;;
77105;SDS011;66057;54.718;18.426;2023-05-07T12:15:51;3.50;;;2.20;;
77105;SDS011;66057;54.718;18.426;2023-05-07T12:18:18;2.95;;;1.90;;
77105;SDS011;66057;54.718;18.426;2023-05-07T12:23:22;3.47;;;2.00;;
77105;SDS011;66057;54.718;18.426;2023-05-07T12:25:50;4.82;;;1.90;;
77105;SDS011;66057;54.718;18.426;2023-05-07T12:28:16;3.35;;;2.00;;
77105;SDS011;66057;54.718;18.426;2023-05-07T12:30:43;5.10;;;2.13;;
77105;SDS011;66057;54.718;18.426;2023-05-07T12:33:09;7.05;;;2.42;;
77105;SDS011;66057;54.718;18.426;2023-05-07T12:35:38;5.80;;;2.20;;
77105;SDS011;66057;54.718;18.426;2023-05-07T12:38:08;6.25;;;2.03;;
77105;SDS011;66057;54.718;18.426;2023-05-07T12:40:37;3.88;;;1.88;;
77105;SDS011;66057;54.718;18.426;2023-05-07T12:43:03;4.72;;;2.00;;
77105;SDS011;66057;54.718;18.426;2023-05-07T12:45:29;4.05;;;2.20;;
77105;SDS011;66057;54.718;18.426;2023-05-07T12:47:55;2.63;;;1.70;;
77105;SDS011;66057;54.718;18.426;2023-05-07T12:50:22;4.43;;;2.45;;
77105;SDS011;66057;54.718;18.426;2023-05-07T12:55:14;2.38;;;1.90;;
77105;SDS011;66057;54.718;18.426;2023-05-07T12:57:41;3.83;;;1.75;;
77105;SDS011;66057;54.718;18.426;2023-05-07T13:00:09;4.55;;;1.70;;
77105;SDS011;66057;54.718;18.426;2023-05-07T13:02:38;3.17;;;1.77;;
77105;SDS011;66057;54.718;18.426;2023-05-07T13:05:05;5.43;;;2.15;;
77105;SDS011;66057;54.718;18.426;2023-05-07T13:07:32;3.88;;;1.65;;
77105;SDS011;66057;54.718;18.426;2023-05-07T13:09:58;2.45;;;1.90;;
77105;SDS011;66057;54.718;18.426;2023-05-07T13:12:23;4.43;;;1.70;;
77105;SDS011;66057;54.718;18.426;2023-05-07T13:14:49;3.72;;;1.88;;
77105;SDS011;66057;54.718;18.426;2023-05-07T13:17:14;3.75;;;1.67;;
77105;SDS011;66057;54.718;18.426;2023-05-07T13:19:40;2.72;;;1.75;;
77105;SDS011;66057;54.718;18.426;2023-05-07T13:22:06;4.85;;;1.80;;
77105;SDS011;66057;54.718;18.426;2023-05-07T13:24:32;3.15;;;1.63;;
77105;SDS011;66057;54.718;18.426;2023-05-07T13:26:57;4.75;;;1.70;;
77105;SDS011;66057;54.718;18.426;2023-05-07T13:29:23;3.83;;;1.95;;
77105;SDS011;66057;54.718;18.426;2023-05-07T13:31:56;3.47;;;2.08;;
77105;SDS011;66057;54.718;18.426;2023-05-07T13:34:22;2.45;;;1.60;;
77105;SDS011;66057;54.718;18.426;2023-05-07T13:36:48;4.05;;;1.55;;
77105;SDS011;66057;54.718;18.426;2023-05-07T13:39:13;4.85;;;1.60;;
77105;SDS011;66057;54.718;18.426;2023-05-07T13:41:39;5.40;;;2.15;;
77105;SDS011;66057;54.718;18.426;2023-05-07T13:44:05;4.05;;;1.60;;
77105;SDS011;66057;54.718;18.426;2023-05-07T13:46:30;2.28;;;1.55;;
77105;SDS011;66057;54.718;18.426;2023-05-07T13:48:56;3.17;;;1.58;;
77105;SDS011;66057;54.718;18.426;2023-05-07T13:51:22;5.35;;;1.60;;
77105;SDS011;66057;54.718;18.426;2023-05-07T13:53:48;3.20;;;1.42;;
77105;SDS011;66057;54.718;18.426;2023-05-07T13:56:14;4.20;;;1.90;;
77105;SDS011;66057;54.718;18.426;2023-05-07T14:01:05;3.20;;;1.50;;
77105;SDS011;66057;54.718;18.426;2023-05-07T14:03:31;2.83;;;1.33;;
77105;SDS011;66057;54.718;18.426;2023-05-07T14:05:59;2.20;;;1.23;;
77105;SDS011;66057;54.718;18.426;2023-05-07T14:08:26;2.72;;;1.65;;
77105;SDS011;66057;54.718;18.426;2023-05-07T14:10:52;5.32;;;2.00;;
77105;SDS011;66057;54.718;18.426;2023-05-07T14:15:44;3.97;;;1.77;;
77105;SDS011;66057;54.718;18.426;2023-05-07T14:18:12;2.47;;;1.58;;
77105;SDS011;66057;54.718;18.426;2023-05-07T14:20:38;3.67;;;1.88;;
77105;SDS011;66057;54.718;18.426;2023-05-07T14:25:29;2.72;;;1.85;;
77105;SDS011;66057;54.718;18.426;2023-05-07T14:27:55;3.75;;;1.48;;
77105;SDS011;66057;54.718;18.426;2023-05-07T14:30:21;3.92;;;1.73;;
77105;SDS011;66057;54.718;18.426;2023-05-07T14:32:50;4.22;;;1.83;;
77105;SDS011;66057;54.718;18.426;2023-05-07T14:35:15;4.82;;;1.90;;
77105;SDS011;66057;54.718;18.426;2023-05-07T14:37:42;2.60;;;1.50;;
77105;SDS011;66057;54.718;18.426;2023-05-07T14:40:08;3.78;;;1.63;;
77105;SDS011;66057;54.718;18.426;2023-05-07T14:42:34;3.17;;;1.45;;
77105;SDS011;66057;54.718;18.426;2023-05-07T14:45:00;3.75;;;1.40;;
77105;SDS011;66057;54.718;18.426;2023-05-07T14:49:52;3.80;;;1.88;;
77105;SDS011;66057;54.718;18.426;2023-05-07T14:52:18;5.40;;;1.83;;
77105;SDS011;66057;54.718;18.426;2023-05-07T14:54:44;3.80;;;1.92;;
77105;SDS011;66057;54.718;18.426;2023-05-07T14:57:10;2.78;;;1.70;;
77105;SDS011;66057;54.718;18.426;2023-05-07T14:59:38;2.88;;;1.63;;
77105;SDS011;66057;54.718;18.426;2023-05-07T15:02:04;3.00;;;1.60;;
77105;SDS011;66057;54.718;18.426;2023-05-07T15:04:32;6.00;;;2.08;;
77105;SDS011;66057;54.718;18.426;2023-05-07T15:06:58;3.65;;;1.63;;
77105;SDS011;66057;54.718;18.426;2023-05-07T15:09:25;3.85;;;1.75;;
77105;SDS011;66057;54.718;18.426;2023-05-07T15:11:51;2.58;;;1.27;;
77105;SDS011;66057;54.718;18.426;2023-05-07T15:14:17;4.43;;;1.83;;
77105;SDS011;66057;54.718;18.426;2023-05-07T15:16:43;3.03;;;1.35;;
77105;SDS011;66057;54.718;18.426;2023-05-07T15:19:08;5.72;;;1.75;;
77105;SDS011;66057;54.718;18.426;2023-05-07T15:21:34;3.72;;;1.65;;
77105;SDS011;66057;54.718;18.426;2023-05-07T15:24:04;5.35;;;2.13;;
77105;SDS011;66057;54.718;18.426;2023-05-07T15:26:30;4.65;;;1.92;;
77105;SDS011;66057;54.718;18.426;2023-05-07T15:28:56;6.22;;;1.80;;
77105;SDS011;66057;54.718;18.426;2023-05-07T15:31:25;5.22;;;1.70;;
77105;SDS011;66057;54.718;18.426;2023-05-07T15:33:51;6.88;;;2.03;;
77105;SDS011;66057;54.718;18.426;2023-05-07T15:36:20;5.40;;;1.77;;